CST,Max TemperatureF,Mean TemperatureF,Min TemperatureF,Max Dew PointF,MeanDew PointF,Min DewpointF,Max Humidity, Mean Humidity, Min Humidity, Max Sea Level PressureIn, Mean Sea Level PressureIn, Min Sea Level PressureIn, Max VisibilityMiles, Mean VisibilityMiles, Min VisibilityMiles, Max Wind SpeedMPH, Mean Wind SpeedMPH, Max Gust SpeedMPH,PrecipitationIn, CloudCover, Events, WindDirDegrees
2013-2-1,51,34,17,25,19,12,86,61,35,30.34,30.20,30.03,10,10,10,21,5,28,0.00,0,,186
2013-2-2,59,42,24,32,24,21,87,58,23,30.34,30.28,30.14,10,10,10,13,4,20,0.00,0,,299
2013-2-3,64,44,23,32,23,14,93,52,15,30.31,30.10,29.82,10,10,10,25,5,32,0.00,0,,197
2013-2-4,60,46,32,36,25,19,76,45,20,29.97,29.91,29.78,10,10,10,18,7,24,0.00,0,,349
2013-2-5,64,45,26,28,24,21,80,49,21,30.02,29.97,29.92,10,10,10,13,4,17,0.00,0,,107
2013-2-6,68,54,41,50,44,28,93,69,40,30.00,29.85,29.73,10,9,2,24,10,31,0.00,3,,182
2013-2-7,57,44,28,52,33,21,94,61,26,30.22,30.00,29.73,10,10,4,25,15,38,0.00,3,,351
2013-2-8,55,38,21,27,19,12,86,51,21,30.26,30.17,30.04,10,10,10,17,5,22,0.00,0,,168
2013-2-9,55,46,37,48,34,14,100,63,27,30.02,29.76,29.53,10,9,2,33,15,41,0.00,3,Rain,167
2013-2-10,53,40,28,23,17,12,64,36,19,30.05,29.80,29.59,10,10,10,26,13,33,0.00,0,,290
2013-2-11,50,34,17,25,21,14,93,58,30,30.20,30.11,30.03,10,10,7,12,3,,0.00,1,,97
2013-2-12,37,32,26,34,30,23,100,90,56,30.08,30.04,30.01,10,6,0,15,5,,0.28,6,Rain-Snow,22
2013-2-13,39,28,17,30,24,16,100,84,61,30.07,30.02,29.95,10,9,5,8,3,,0.00,0,,286
2013-2-14,46,32,19,36,28,18,100,81,62,30.29,30.10,30.00,10,9,7,16,3,25,0.00,2,,7
2013-2-15,44,38,32,32,25,19,93,66,39,30.41,30.34,30.27,10,10,10,15,7,17,0.00,4,,345
2013-2-16,60,42,24,32,28,21,100,68,22,30.39,30.20,30.02,10,10,4,17,5,22,0.00,2,,262
2013-2-17,69,48,26,34,25,16,93,50,15,30.02,29.80,29.57,10,10,10,24,4,36,0.00,0,,196
2013-2-18,53,40,28,30,23,16,75,46,24,30.14,29.88,29.56,10,10,10,29,16,41,0.00,1,,325
2013-2-19,53,36,19,30,22,18,93,60,28,30.25,30.15,30.04,10,10,10,20,5,25,0.00,0,,165
2013-2-20,44,38,33,37,34,23,100,87,43,30.04,29.90,29.77,10,8,2,25,16,37,0.05,8,Rain-Snow-Thunderstorm,141
2013-2-21,33,26,17,32,25,12,100,90,74,29.98,29.76,29.55,10,6,0,21,10,30,0.55,6,Snow-Thunderstorm,7
2013-2-22,32,22,12,21,16,9,93,78,60,30.10,30.04,29.97,10,10,7,7,2,,0.00,0,,299
2013-2-23,42,30,19,34,28,18,93,84,70,30.04,29.90,29.76,10,9,5,15,4,17,0.00,3,,181
2013-2-24,55,44,32,37,32,28,93,82,47,29.85,29.74,29.66,10,9,2,21,8,26,0.00,3,Snow,321
2013-2-25,32,31,30,32,30,28,100,95,87,29.86,29.78,29.71,3,2,1,32,20,43,0.07,8,Snow,2
2013-2-26,35,28,21,27,24,19,93,78,60,29.96,29.85,29.80,10,10,10,18,9,22,0.00,2,,330
2013-2-27,42,33,24,32,28,21,93,78,61,30.26,30.14,29.96,10,10,10,23,7,29,0.00,1,,334
2013-2-28,50,37,24,28,24,21,93,68,32,30.29,30.24,30.19,10,10,7,14,5,20,0.00,1,,290